Austin Reinauer — WCX8055 — position and weather

sailwx.info

Track history (hours):
 
Tides and Currents Weather Stations Pressure Air Temp Water Temp Dewpoint Dewpoint Depression Visibility Wind Speed Wind Dir Waves Ship Positions

Austin Reinauer

Owner: REINAUER TRANSPORTATION CO, LP, STATEN ISLAND, NY. More information available from US FCC via Universal Licensing System and Coast Guard Vessel Documentation Center.

Last reported at 2014-Oct-24 15:33 UTC. Time now 2014-Oct-24 16:16 UTC.
Position N 41°18' W 072°55'.

Length 33 m; draft 6.7 m.

Type: Ship (hazmat cat B). MMSI: 366739920.

Date/timePositionNaut miles runAvg speedWind from/ knotsBaromVisibWave heightAir tempDewpointWater temp
2014-Oct-24 15:33N 41°18' W 072°55'7 6.6
2014-Oct-24 14:33N 41°11' W 072°56'8 7.8
2014-Oct-24 13:32N 41°07' W 073°05'7 7.6
2014-Oct-24 12:33N 41°03' W 073°14'8 8.2
2014-Oct-24 11:33N 41°01' W 073°24'19 8.3
2014-Oct-24 09:15N 40°51' W 073°46'5 6.9
2014-Oct-24 08:32N 40°48' W 073°51'5 5.7
2014-Oct-24 07:33N 40°45' W 073°58'5 5.3
2014-Oct-24 06:33N 40°41' W 074°01'3 3.3
2014-Oct-24 05:33N 40°39' W 074°05'0 0.0
2014-Oct-24 04:33N 40°39' W 074°05'0 0.0
2014-Oct-24 03:33N 40°39' W 074°05'0 0.0
2014-Oct-24 02:33N 40°39' W 074°05'0 0.0
2014-Oct-24 01:33N 40°39' W 074°05'0 0.0
2014-Oct-24 00:33N 40°39' W 074°05'0 0.0
2014-Oct-23 23:33N 40°39' W 074°05'0 0.0
2014-Oct-23 22:33N 40°39' W 074°05'0 0.0
2014-Oct-23 21:33N 40°39' W 074°05'0 0.0
2014-Oct-23 20:33N 40°39' W 074°05'0 0.0
2014-Oct-23 19:33N 40°39' W 074°05'0 0.0
2014-Oct-23 18:33N 40°39' W 074°05'0 0.0
2014-Oct-23 17:33N 40°39' W 074°05'2 1.9
2014-Oct-23 16:33N 40°39' W 074°08'0 0.2
2014-Oct-23 15:30N 40°38' W 074°08'0 0.0
2014-Oct-23 14:16N 40°38' W 074°08'0 0.0
2014-Oct-23 13:25N 40°38' W 074°08'0 0.0
2014-Oct-23 12:33N 40°38' W 074°08'2 2.1
2014-Oct-23 11:33N 40°39' W 074°05'0 0.0
2014-Oct-23 10:33N 40°39' W 074°05'0 0.0
2014-Oct-23 09:33N 40°39' W 074°05'0 0.0
2014-Oct-23 08:33N 40°39' W 074°05'0 0.0
2014-Oct-23 07:33N 40°39' W 074°05'0 0.0
2014-Oct-23 06:33N 40°39' W 074°05'0 0.0
2014-Oct-23 05:33N 40°39' W 074°05'0 0.0
2014-Oct-23 04:33N 40°39' W 074°05'0 0.0
2014-Oct-23 03:33N 40°39' W 074°05'0 0.0
2014-Oct-23 02:33N 40°39' W 074°05'0 0.0
2014-Oct-23 01:33N 40°39' W 074°05'0 0.1
2014-Oct-23 00:33N 40°39' W 074°05'2 1.5
2014-Oct-22 23:34N 40°39' W 074°03'0 0.5
2014-Oct-22 22:33N 40°40' W 074°03'0 0.0
2014-Oct-22 21:33N 40°40' W 074°03'4 4.1
2014-Oct-22 20:33N 40°43' W 073°59'8 6.1
2014-Oct-22 19:14N 40°48' W 073°51'6 8.3
2014-Oct-22 18:31N 40°52' W 073°45'9 9.5
2014-Oct-22 17:33N 40°56' W 073°35'10 9.9
2014-Oct-22 16:33N 41°01' W 073°23'10 9.9
2014-Oct-22 15:33N 41°04' W 073°11'1010.1
2014-Oct-22 14:33N 41°10' W 072°59'9 8.6
2014-Oct-22 13:34N 41°17' W 072°55'0 0.2
2014-Oct-22 12:11N 41°18' W 072°54'0 0.0
2014-Oct-22 10:18N 41°18' W 072°54'0 0.0
2014-Oct-22 09:17N 41°18' W 072°54'0 0.0
2014-Oct-22 07:14N 41°18' W 072°54'0 0.0
2014-Oct-22 06:25N 41°18' W 072°54'0 0.0
2014-Oct-22 04:30N 41°18' W 072°54'0 0.0
2014-Oct-22 03:24N 41°18' W 072°54'0 0.3
2014-Oct-22 02:33N 41°18' W 072°55'0 0.0
2014-Oct-22 01:33N 41°18' W 072°55'0 0.0
2014-Oct-22 00:33N 41°18' W 072°55'0 0.0
2014-Oct-21 23:33N 41°18' W 072°55'0 0.0
2014-Oct-21 22:33N 41°18' W 072°55'0 0.0
2014-Oct-21 21:34N 41°18' W 072°55'0 0.0
2014-Oct-21 20:32N 41°18' W 072°55'0 0.0
2014-Oct-21 19:33N 41°18' W 072°55'0 0.0
2014-Oct-21 18:33N 41°18' W 072°55'0 0.0
2014-Oct-21 17:33N 41°18' W 072°55'0 0.0
2014-Oct-21 16:33N 41°18' W 072°55'0 0.0
2014-Oct-21 15:33N 41°18' W 072°55'0 0.0
2014-Oct-21 14:33N 41°18' W 072°55'3 2.8
2014-Oct-21 13:33N 41°15' W 072°55'7 6.8
2014-Oct-21 12:33N 41°09' W 072°60'8 7.8
2014-Oct-21 11:33N 41°05' W 073°08'8 8.0
2014-Oct-21 10:33N 41°02' W 073°18'8 8.3
2014-Oct-21 09:33N 40°59' W 073°28'8 8.4
2014-Oct-21 08:32N 40°55' W 073°38'8 8.3
2014-Oct-21 07:33N 40°50' W 073°47'7 6.6
2014-Oct-21 06:33N 40°48' W 073°55'5 5.4
2014-Oct-21 05:33N 40°43' W 073°58'5 5.3
2014-Oct-21 04:33N 40°39' W 074°03'1 0.8
2014-Oct-21 03:33N 40°38' W 074°04'6 6.0
2014-Oct-21 02:33N 40°38' W 074°12'1 0.6
2014-Oct-21 01:33N 40°38' W 074°12'0 0.0
2014-Oct-21 00:33N 40°38' W 074°12'0 0.0
2014-Oct-20 23:32N 40°38' W 074°12'0 0.0
2014-Oct-20 22:33N 40°38' W 074°12'0 0.0
2014-Oct-20 21:33N 40°38' W 074°12'0 0.0
2014-Oct-20 20:33N 40°38' W 074°12'0 0.0
2014-Oct-20 19:33N 40°38' W 074°12'0 0.0
2014-Oct-20 18:33N 40°38' W 074°12'0 0.0
2014-Oct-20 17:33N 40°38' W 074°12'0 0.0
2014-Oct-20 16:33N 40°38' W 074°12'0 0.0
2014-Oct-20 15:33N 40°38' W 074°12'0 0.0
2014-Oct-20 14:33N 40°38' W 074°12'0 0.0
2014-Oct-20 13:33N 40°38' W 074°12'0 0.0
2014-Oct-20 12:33N 40°38' W 074°12'0 0.0
2014-Oct-20 11:33N 40°38' W 074°12'0 0.0
2014-Oct-20 10:33N 40°38' W 074°12'0 0.0
2014-Oct-20 09:33N 40°38' W 074°12'0 0.0
2014-Oct-20 08:33N 40°38' W 074°12'0 0.0
2014-Oct-20 07:33N 40°38' W 074°12'0 0.0
2014-Oct-20 06:33N 40°38' W 074°12'0 0.0
2014-Oct-20 05:32N 40°38' W 074°12'0 0.0
2014-Oct-20 04:33N 40°38' W 074°12'0 0.0
2014-Oct-20 03:32N 40°38' W 074°12'0 0.0
2014-Oct-20 02:33N 40°38' W 074°12'0 0.0
2014-Oct-20 01:33N 40°38' W 074°12'3 2.7
2014-Oct-20 00:33N 40°39' W 074°09'5 4.6
2014-Oct-19 23:33N 40°39' W 074°03'0 0.1
2014-Oct-19 22:33N 40°39' W 074°03'0 0.0
2014-Oct-19 21:33N 40°39' W 074°03'0 0.0
2014-Oct-19 20:33N 40°39' W 074°03'0 0.0
2014-Oct-19 19:31N 40°39' W 074°03'0 0.0
2014-Oct-19 18:33N 40°39' W 074°03'0 0.1
2014-Oct-19 17:33N 40°39' W 074°03'0 0.0
2014-Oct-19 16:33N 40°39' W 074°03'0 0.0
2014-Oct-19 15:33N 40°39' W 074°03'0 0.0
2014-Oct-19 14:33N 40°39' W 074°03'0 0.0
2014-Oct-19 13:33N 40°39' W 074°03'0 0.0
2014-Oct-19 12:33N 40°39' W 074°03'0 0.0
2014-Oct-19 11:33N 40°39' W 074°03'0 0.0
2014-Oct-19 10:33N 40°39' W 074°03'0 0.1
2014-Oct-19 09:33N 40°39' W 074°03'0 0.0
2014-Oct-19 08:33N 40°39' W 074°03'0 0.0
2014-Oct-19 07:33N 40°39' W 074°03'0 0.1
2014-Oct-19 06:33N 40°39' W 074°03'0 0.1
2014-Oct-19 05:33N 40°39' W 074°03'0 0.0
2014-Oct-19 04:33N 40°39' W 074°03'2 1.8
2014-Oct-19 03:33N 40°39' W 074°05'0 0.0
2014-Oct-19 02:33N 40°39' W 074°05'0 0.0
2014-Oct-19 01:33N 40°39' W 074°05'0 0.0
2014-Oct-19 00:33N 40°39' W 074°05'0 0.0
2014-Oct-18 23:33N 40°39' W 074°05'0 0.0
2014-Oct-18 22:33N 40°39' W 074°05'2 1.5
2014-Oct-18 21:33N 40°39' W 074°03'6 6.4
2014-Oct-18 20:33N 40°44' W 073°58'8 6.2
2014-Oct-18 19:16N 40°48' W 073°49'6 7.9
2014-Oct-18 18:33N 40°52' W 073°44'9 9.4
2014-Oct-18 17:33N 40°57' W 073°33'9 9.3
2014-Oct-18 16:33N 41°01' W 073°22'9 9.3
2014-Oct-18 15:33N 41°02' W 073°09'9 9.3
2014-Oct-18 14:33N 41°03' W 072°57'10 9.6
2014-Oct-18 13:33N 41°06' W 072°45'9 9.5
2014-Oct-18 12:33N 41°08' W 072°33'1010.2
2014-Oct-18 11:33N 41°11' W 072°20'1110.5
2014-Oct-18 10:33N 41°14' W 072°07'1110.9
2014-Oct-18 09:33N 41°16' W 071°52'1010.2
2014-Oct-18 08:33N 41°18' W 071°39'8 8.1
2014-Oct-18 07:33N 41°18' W 071°28'8 7.6
2014-Oct-18 06:33N 41°21' W 071°19'8 7.6
2014-Oct-18 05:33N 41°24' W 071°09'7 7.4
2014-Oct-18 04:33N 41°27' W 071°00'9 7.9
2014-Oct-18 03:23N 41°31' W 070°49'7 7.9
2014-Oct-18 02:33N 41°36' W 070°43'9 8.3
2014-Oct-18 01:30N 41°44' W 070°38'9 9.4
2014-Oct-18 00:31N 41°49' W 070°28'12 9.5
2014-Oct-17 23:17N 42°01' W 070°31'19 0.6
2014-Oct-16 17:31N 41°43' W 070°39'9 9.5
2014-Oct-16 16:33N 41°34' W 070°44'10 9.4
2014-Oct-16 15:32N 41°29' W 070°54'9 9.1
2014-Oct-16 14:33N 41°24' W 071°04'8 8.0
2014-Oct-16 13:33N 41°24' W 071°15'7 7.0
2014-Oct-16 12:33N 41°28' W 071°22'9 9.0
2014-Oct-16 11:33N 41°36' W 071°18'9 8.8
2014-Oct-16 10:33N 41°44' W 071°22'3 2.5
2014-Oct-16 09:33N 41°47' W 071°22'0 0.0
2014-Oct-16 08:34N 41°47' W 071°22'0 0.0
2014-Oct-16 07:33N 41°47' W 071°22'0 0.0
2014-Oct-16 06:33N 41°47' W 071°22'0 0.0
2014-Oct-16 05:33N 41°47' W 071°22'0 0.0
2014-Oct-16 04:33N 41°47' W 071°22'0 0.0
2014-Oct-16 03:33N 41°47' W 071°22'0 0.0
2014-Oct-16 02:33N 41°47' W 071°22'0 0.0
2014-Oct-16 01:33N 41°47' W 071°22'0 0.0
2014-Oct-16 00:33N 41°47' W 071°22'0 0.0
2014-Oct-15 23:33N 41°47' W 071°22'0 0.0
2014-Oct-15 22:33N 41°47' W 071°22'0 0.0
2014-Oct-15 21:33N 41°47' W 071°22'0 0.0
2014-Oct-15 20:33N 41°47' W 071°22'0 0.0
2014-Oct-15 19:33N 41°47' W 071°22'0 0.0
2014-Oct-15 18:33N 41°47' W 071°22'0 0.0
2014-Oct-15 17:34N 41°47' W 071°22'0 0.0
2014-Oct-15 16:33N 41°47' W 071°22'0 0.0
2014-Oct-15 15:33N 41°47' W 071°22'1 1.1
2014-Oct-15 14:33N 41°46' W 071°23'8 7.8
2014-Oct-15 13:33N 41°39' W 071°18'9 8.6
2014-Oct-15 12:33N 41°30' W 071°21'9 8.6
2014-Oct-15 11:33N 41°22' W 071°25'7 7.3
2014-Oct-15 10:33N 41°18' W 071°33'9 8.8
2014-Oct-15 09:33N 41°17' W 071°44'8 8.3
2014-Oct-15 08:33N 41°15' W 071°55'7 6.9
2014-Oct-15 07:33N 41°16' W 072°04'1 1.3
2014-Oct-15 06:33N 41°17' W 072°05'6 5.6
2014-Oct-15 05:33N 41°14' W 072°12'6 5.9
2014-Oct-15 04:33N 41°12' W 072°19'7 6.6
2014-Oct-15 03:33N 41°09' W 072°27'7 7.1
2014-Oct-15 02:33N 41°07' W 072°36'8 7.7
2014-Oct-15 01:33N 41°05' W 072°46'8 8.0
2014-Oct-15 00:33N 41°03' W 072°56'9 8.6
2014-Oct-14 23:33N 41°01' W 073°07'11 8.9
2014-Oct-14 22:20N 41°01' W 073°22'7 8.7
2014-Oct-14 21:32N 40°58' W 073°30'8 8.4
2014-Oct-14 20:33N 40°54' W 073°40'8 7.9
2014-Oct-14 19:33N 40°48' W 073°47'7 7.4
2014-Oct-14 18:33N 40°47' W 073°56'9 8.5
2014-Oct-14 17:33N 40°40' W 074°03'  
Track history (hours):
 
Tides and Currents Weather Stations Pressure Air Temp Water Temp Dewpoint Dewpoint Depression Visibility Wind Speed Wind Dir Waves Ship Positions

Austin Reinauer

Owner: REINAUER TRANSPORTATION CO, LP, STATEN ISLAND, NY. More information available from US FCC via Universal Licensing System and Coast Guard Vessel Documentation Center.

Last reported at 2014-Oct-24 15:33 UTC. Time now 2014-Oct-24 16:16 UTC.
Position N 41°18' W 072°55'.

Length 33 m; draft 6.7 m.

Type: Ship (hazmat cat B). MMSI: 366739920.

Date/timePositionNaut miles runAvg speedWind from/ knotsBaromVisibWave heightAir tempDewpointWater temp
2014-Oct-24 15:33N 41°18' W 072°55'7 6.6
2014-Oct-24 14:33N 41°11' W 072°56'8 7.8
2014-Oct-24 13:32N 41°07' W 073°05'7 7.6
2014-Oct-24 12:33N 41°03' W 073°14'8 8.2
2014-Oct-24 11:33N 41°01' W 073°24'19 8.3
2014-Oct-24 09:15N 40°51' W 073°46'5 6.9
2014-Oct-24 08:32N 40°48' W 073°51'5 5.7
2014-Oct-24 07:33N 40°45' W 073°58'5 5.3
2014-Oct-24 06:33N 40°41' W 074°01'3 3.3
2014-Oct-24 05:33N 40°39' W 074°05'0 0.0
2014-Oct-24 04:33N 40°39' W 074°05'0 0.0
2014-Oct-24 03:33N 40°39' W 074°05'0 0.0
2014-Oct-24 02:33N 40°39' W 074°05'0 0.0
2014-Oct-24 01:33N 40°39' W 074°05'0 0.0
2014-Oct-24 00:33N 40°39' W 074°05'0 0.0
2014-Oct-23 23:33N 40°39' W 074°05'0 0.0
2014-Oct-23 22:33N 40°39' W 074°05'0 0.0
2014-Oct-23 21:33N 40°39' W 074°05'0 0.0
2014-Oct-23 20:33N 40°39' W 074°05'0 0.0
2014-Oct-23 19:33N 40°39' W 074°05'0 0.0
2014-Oct-23 18:33N 40°39' W 074°05'0 0.0
2014-Oct-23 17:33N 40°39' W 074°05'2 1.9
2014-Oct-23 16:33N 40°39' W 074°08'0 0.2
2014-Oct-23 15:30N 40°38' W 074°08'0 0.0
2014-Oct-23 14:16N 40°38' W 074°08'0 0.0
2014-Oct-23 13:25N 40°38' W 074°08'0 0.0
2014-Oct-23 12:33N 40°38' W 074°08'2 2.1
2014-Oct-23 11:33N 40°39' W 074°05'0 0.0
2014-Oct-23 10:33N 40°39' W 074°05'0 0.0
2014-Oct-23 09:33N 40°39' W 074°05'0 0.0
2014-Oct-23 08:33N 40°39' W 074°05'0 0.0
2014-Oct-23 07:33N 40°39' W 074°05'0 0.0
2014-Oct-23 06:33N 40°39' W 074°05'0 0.0
2014-Oct-23 05:33N 40°39' W 074°05'0 0.0
2014-Oct-23 04:33N 40°39' W 074°05'0 0.0
2014-Oct-23 03:33N 40°39' W 074°05'0 0.0
2014-Oct-23 02:33N 40°39' W 074°05'0 0.0
2014-Oct-23 01:33N 40°39' W 074°05'0 0.1
2014-Oct-23 00:33N 40°39' W 074°05'2 1.5
2014-Oct-22 23:34N 40°39' W 074°03'0 0.5
2014-Oct-22 22:33N 40°40' W 074°03'0 0.0
2014-Oct-22 21:33N 40°40' W 074°03'4 4.1
2014-Oct-22 20:33N 40°43' W 073°59'8 6.1
2014-Oct-22 19:14N 40°48' W 073°51'6 8.3
2014-Oct-22 18:31N 40°52' W 073°45'9 9.5
2014-Oct-22 17:33N 40°56' W 073°35'10 9.9
2014-Oct-22 16:33N 41°01' W 073°23'10 9.9
2014-Oct-22 15:33N 41°04' W 073°11'1010.1
2014-Oct-22 14:33N 41°10' W 072°59'9 8.6
2014-Oct-22 13:34N 41°17' W 072°55'0 0.2
2014-Oct-22 12:11N 41°18' W 072°54'0 0.0
2014-Oct-22 10:18N 41°18' W 072°54'0 0.0
2014-Oct-22 09:17N 41°18' W 072°54'0 0.0
2014-Oct-22 07:14N 41°18' W 072°54'0 0.0
2014-Oct-22 06:25N 41°18' W 072°54'0 0.0
2014-Oct-22 04:30N 41°18' W 072°54'0 0.0
2014-Oct-22 03:24N 41°18' W 072°54'0 0.3
2014-Oct-22 02:33N 41°18' W 072°55'0 0.0
2014-Oct-22 01:33N 41°18' W 072°55'0 0.0
2014-Oct-22 00:33N 41°18' W 072°55'0 0.0
2014-Oct-21 23:33N 41°18' W 072°55'0 0.0
2014-Oct-21 22:33N 41°18' W 072°55'0 0.0
2014-Oct-21 21:34N 41°18' W 072°55'0 0.0
2014-Oct-21 20:32N 41°18' W 072°55'0 0.0
2014-Oct-21 19:33N 41°18' W 072°55'0 0.0
2014-Oct-21 18:33N 41°18' W 072°55'0 0.0
2014-Oct-21 17:33N 41°18' W 072°55'0 0.0
2014-Oct-21 16:33N 41°18' W 072°55'0 0.0
2014-Oct-21 15:33N 41°18' W 072°55'0 0.0
2014-Oct-21 14:33N 41°18' W 072°55'3 2.8
2014-Oct-21 13:33N 41°15' W 072°55'7 6.8
2014-Oct-21 12:33N 41°09' W 072°60'8 7.8
2014-Oct-21 11:33N 41°05' W 073°08'8 8.0
2014-Oct-21 10:33N 41°02' W 073°18'8 8.3
2014-Oct-21 09:33N 40°59' W 073°28'8 8.4
2014-Oct-21 08:32N 40°55' W 073°38'8 8.3
2014-Oct-21 07:33N 40°50' W 073°47'7 6.6
2014-Oct-21 06:33N 40°48' W 073°55'5 5.4
2014-Oct-21 05:33N 40°43' W 073°58'5 5.3
2014-Oct-21 04:33N 40°39' W 074°03'1 0.8
2014-Oct-21 03:33N 40°38' W 074°04'6 6.0
2014-Oct-21 02:33N 40°38' W 074°12'1 0.6
2014-Oct-21 01:33N 40°38' W 074°12'0 0.0
2014-Oct-21 00:33N 40°38' W 074°12'0 0.0
2014-Oct-20 23:32N 40°38' W 074°12'0 0.0
2014-Oct-20 22:33N 40°38' W 074°12'0 0.0
2014-Oct-20 21:33N 40°38' W 074°12'0 0.0
2014-Oct-20 20:33N 40°38' W 074°12'0 0.0
2014-Oct-20 19:33N 40°38' W 074°12'0 0.0
2014-Oct-20 18:33N 40°38' W 074°12'0 0.0
2014-Oct-20 17:33N 40°38' W 074°12'0 0.0
2014-Oct-20 16:33N 40°38' W 074°12'0 0.0
2014-Oct-20 15:33N 40°38' W 074°12'0 0.0
2014-Oct-20 14:33N 40°38' W 074°12'0 0.0
2014-Oct-20 13:33N 40°38' W 074°12'0 0.0
2014-Oct-20 12:33N 40°38' W 074°12'0 0.0
2014-Oct-20 11:33N 40°38' W 074°12'0 0.0
2014-Oct-20 10:33N 40°38' W 074°12'0 0.0
2014-Oct-20 09:33N 40°38' W 074°12'0 0.0
2014-Oct-20 08:33N 40°38' W 074°12'0 0.0
2014-Oct-20 07:33N 40°38' W 074°12'0 0.0
2014-Oct-20 06:33N 40°38' W 074°12'0 0.0
2014-Oct-20 05:32N 40°38' W 074°12'0 0.0
2014-Oct-20 04:33N 40°38' W 074°12'0 0.0
2014-Oct-20 03:32N 40°38' W 074°12'0 0.0
2014-Oct-20 02:33N 40°38' W 074°12'0 0.0
2014-Oct-20 01:33N 40°38' W 074°12'3 2.7
2014-Oct-20 00:33N 40°39' W 074°09'5 4.6
2014-Oct-19 23:33N 40°39' W 074°03'0 0.1
2014-Oct-19 22:33N 40°39' W 074°03'0 0.0
2014-Oct-19 21:33N 40°39' W 074°03'0 0.0
2014-Oct-19 20:33N 40°39' W 074°03'0 0.0
2014-Oct-19 19:31N 40°39' W 074°03'0 0.0
2014-Oct-19 18:33N 40°39' W 074°03'0 0.1
2014-Oct-19 17:33N 40°39' W 074°03'0 0.0
2014-Oct-19 16:33N 40°39' W 074°03'0 0.0
2014-Oct-19 15:33N 40°39' W 074°03'0 0.0
2014-Oct-19 14:33N 40°39' W 074°03'0 0.0
2014-Oct-19 13:33N 40°39' W 074°03'0 0.0
2014-Oct-19 12:33N 40°39' W 074°03'0 0.0
2014-Oct-19 11:33N 40°39' W 074°03'0 0.0
2014-Oct-19 10:33N 40°39' W 074°03'0 0.1
2014-Oct-19 09:33N 40°39' W 074°03'0 0.0
2014-Oct-19 08:33N 40°39' W 074°03'0 0.0
2014-Oct-19 07:33N 40°39' W 074°03'0 0.1
2014-Oct-19 06:33N 40°39' W 074°03'0 0.1
2014-Oct-19 05:33N 40°39' W 074°03'0 0.0
2014-Oct-19 04:33N 40°39' W 074°03'2 1.8
2014-Oct-19 03:33N 40°39' W 074°05'0 0.0
2014-Oct-19 02:33N 40°39' W 074°05'0 0.0
2014-Oct-19 01:33N 40°39' W 074°05'0 0.0
2014-Oct-19 00:33N 40°39' W 074°05'0 0.0
2014-Oct-18 23:33N 40°39' W 074°05'0 0.0
2014-Oct-18 22:33N 40°39' W 074°05'2 1.5
2014-Oct-18 21:33N 40°39' W 074°03'6 6.4
2014-Oct-18 20:33N 40°44' W 073°58'8 6.2
2014-Oct-18 19:16N 40°48' W 073°49'6 7.9
2014-Oct-18 18:33N 40°52' W 073°44'9 9.4
2014-Oct-18 17:33N 40°57' W 073°33'9 9.3
2014-Oct-18 16:33N 41°01' W 073°22'9 9.3
2014-Oct-18 15:33N 41°02' W 073°09'9 9.3
2014-Oct-18 14:33N 41°03' W 072°57'10 9.6
2014-Oct-18 13:33N 41°06' W 072°45'9 9.5
2014-Oct-18 12:33N 41°08' W 072°33'1010.2
2014-Oct-18 11:33N 41°11' W 072°20'1110.5
2014-Oct-18 10:33N 41°14' W 072°07'1110.9
2014-Oct-18 09:33N 41°16' W 071°52'1010.2
2014-Oct-18 08:33N 41°18' W 071°39'8 8.1
2014-Oct-18 07:33N 41°18' W 071°28'8 7.6
2014-Oct-18 06:33N 41°21' W 071°19'8 7.6
2014-Oct-18 05:33N 41°24' W 071°09'7 7.4
2014-Oct-18 04:33N 41°27' W 071°00'9 7.9
2014-Oct-18 03:23N 41°31' W 070°49'7 7.9
2014-Oct-18 02:33N 41°36' W 070°43'9 8.3
2014-Oct-18 01:30N 41°44' W 070°38'9 9.4
2014-Oct-18 00:31N 41°49' W 070°28'12 9.5
2014-Oct-17 23:17N 42°01' W 070°31'19 0.6
2014-Oct-16 17:31N 41°43' W 070°39'9 9.5
2014-Oct-16 16:33N 41°34' W 070°44'10 9.4
2014-Oct-16 15:32N 41°29' W 070°54'9 9.1
2014-Oct-16 14:33N 41°24' W 071°04'8 8.0
2014-Oct-16 13:33N 41°24' W 071°15'7 7.0
2014-Oct-16 12:33N 41°28' W 071°22'9 9.0
2014-Oct-16 11:33N 41°36' W 071°18'9 8.8
2014-Oct-16 10:33N 41°44' W 071°22'3 2.5
2014-Oct-16 09:33N 41°47' W 071°22'0 0.0
2014-Oct-16 08:34N 41°47' W 071°22'0 0.0
2014-Oct-16 07:33N 41°47' W 071°22'0 0.0
2014-Oct-16 06:33N 41°47' W 071°22'0 0.0
2014-Oct-16 05:33N 41°47' W 071°22'0 0.0
2014-Oct-16 04:33N 41°47' W 071°22'0 0.0
2014-Oct-16 03:33N 41°47' W 071°22'0 0.0
2014-Oct-16 02:33N 41°47' W 071°22'0 0.0
2014-Oct-16 01:33N 41°47' W 071°22'0 0.0
2014-Oct-16 00:33N 41°47' W 071°22'0 0.0
2014-Oct-15 23:33N 41°47' W 071°22'0 0.0
2014-Oct-15 22:33N 41°47' W 071°22'0 0.0
2014-Oct-15 21:33N 41°47' W 071°22'0 0.0
2014-Oct-15 20:33N 41°47' W 071°22'0 0.0
2014-Oct-15 19:33N 41°47' W 071°22'0 0.0
2014-Oct-15 18:33N 41°47' W 071°22'0 0.0
2014-Oct-15 17:34N 41°47' W 071°22'0 0.0
2014-Oct-15 16:33N 41°47' W 071°22'0 0.0
2014-Oct-15 15:33N 41°47' W 071°22'1 1.1
2014-Oct-15 14:33N 41°46' W 071°23'8 7.8
2014-Oct-15 13:33N 41°39' W 071°18'9 8.6
2014-Oct-15 12:33N 41°30' W 071°21'9 8.6
2014-Oct-15 11:33N 41°22' W 071°25'7 7.3
2014-Oct-15 10:33N 41°18' W 071°33'9 8.8
2014-Oct-15 09:33N 41°17' W 071°44'8 8.3
2014-Oct-15 08:33N 41°15' W 071°55'7 6.9
2014-Oct-15 07:33N 41°16' W 072°04'1 1.3
2014-Oct-15 06:33N 41°17' W 072°05'6 5.6
2014-Oct-15 05:33N 41°14' W 072°12'6 5.9
2014-Oct-15 04:33N 41°12' W 072°19'7 6.6
2014-Oct-15 03:33N 41°09' W 072°27'7 7.1
2014-Oct-15 02:33N 41°07' W 072°36'8 7.7
2014-Oct-15 01:33N 41°05' W 072°46'8 8.0
2014-Oct-15 00:33N 41°03' W 072°56'9 8.6
2014-Oct-14 23:33N 41°01' W 073°07'11 8.9
2014-Oct-14 22:20N 41°01' W 073°22'7 8.7
2014-Oct-14 21:32N 40°58' W 073°30'8 8.4
2014-Oct-14 20:33N 40°54' W 073°40'8 7.9
2014-Oct-14 19:33N 40°48' W 073°47'7 7.4
2014-Oct-14 18:33N 40°47' W 073°56'9 8.5
2014-Oct-14 17:33N 40°40' W 074°03'  

Dump ship's entire track history